Time;durP1;ratioP1;P1;durP2;ratioP2;P2;SDS_P1;SDS_P2;PMS_P1;PMS_P2;Temp;Humidity;BMP_temperature;BMP_pressure;BME280_temperature;BME280_humidity;BME280_pressure;Samples;Min_cycle;Max_cycle;Signal;HPM_P1;HPM_P2
2021/03/21 00:01:02;;;;;;;21.10;2.47;;;5.30;99.90;;;;;;5057254;28;20741;-49
2021/03/21 00:03:28;;;;;;;20.67;2.97;;;5.40;99.90;;;;;;5091908;28;20893;-49
2021/03/21 00:05:55;;;;;;;18.70;2.63;;;5.40;99.90;;;;;;5090245;28;20401;-50
2021/03/21 00:08:25;;;;;;;25.95;2.55;;;5.30;99.90;;;;;;5092342;28;20384;-50
2021/03/21 00:10:53;;;;;;;22.02;2.30;;;5.30;99.90;;;;;;5074467;28;20405;-49
2021/03/21 00:13:20;;;;;;;22.30;3.23;;;5.30;99.90;;;;;;5092088;28;20387;-50
2021/03/21 00:15:47;;;;;;;18.50;2.78;;;5.30;99.90;;;;;;5090726;28;20404;-50
2021/03/21 00:18:14;;;;;;;21.90;2.58;;;5.20;99.90;;;;;;5092141;28;20380;-51
2021/03/21 00:20:40;;;;;;;22.70;2.70;;;5.30;99.90;;;;;;5090214;28;20748;-52
2021/03/21 00:23:07;;;;;;;21.50;2.58;;;5.20;99.90;;;;;;5073912;28;20389;-51
2021/03/21 00:25:34;;;;;;;17.98;2.53;;;5.20;99.90;;;;;;5091702;28;20423;-49
2021/03/21 00:28:01;;;;;;;17.35;2.08;;;5.20;99.90;;;;;;5073665;28;20396;-49
2021/03/21 00:30:33;;;;;;;21.67;2.60;;;5.20;99.90;;;;;;5091671;28;20405;-49
2021/03/21 00:32:59;;;;;;;22.02;2.38;;;5.20;99.90;;;;;;5091370;28;20376;-52
2021/03/21 00:35:25;;;;;;;20.53;2.27;;;5.10;99.90;;;;;;5088319;28;20391;-51
2021/03/21 00:37:56;;;;;;;21.73;2.00;;;5.10;99.90;;;;;;5073449;28;20383;-51
2021/03/21 00:40:23;;;;;;;20.20;2.45;;;5.10;99.90;;;;;;5091312;28;20388;-49
2021/03/21 00:42:49;;;;;;;20.63;2.38;;;5.10;99.90;;;;;;5091383;28;20872;-50
2021/03/21 00:45:16;;;;;;;15.68;2.00;;;5.00;99.90;;;;;;5090736;28;20407;-50
2021/03/21 00:47:43;;;;;;;16.63;1.92;;;5.00;99.90;;;;;;5091064;28;20380;-51
2021/03/21 00:50:11;;;;;;;19.70;2.08;;;5.00;99.90;;;;;;5091173;28;20412;-50
2021/03/21 00:52:37;;;;;;;17.77;1.95;;;5.00;99.90;;;;;;5074047;28;20741;-49
2021/03/21 00:55:04;;;;;;;13.93;2.22;;;5.00;99.90;;;;;;5088759;28;20396;-49
2021/03/21 00:57:30;;;;;;;15.30;2.10;;;4.90;99.90;;;;;;5090659;28;20741;-50
2021/03/21 00:59:56;;;;;;;14.15;1.95;;;5.00;99.90;;;;;;5091087;28;20896;-52
2021/03/21 01:02:23;;;;;;;17.40;2.08;;;5.00;99.90;;;;;;5091112;28;20393;-51
2021/03/21 01:04:49;;;;;;;15.60;2.25;;;5.00;99.90;;;;;;5090943;28;20384;-49
2021/03/21 01:07:16;;;;;;;16.83;2.22;;;5.00;99.90;;;;;;5072423;28;20384;-49
2021/03/21 01:09:42;;;;;;;14.80;1.58;;;5.00;99.90;;;;;;5091170;28;20389;-51
2021/03/21 01:12:09;;;;;;;16.85;2.17;;;4.90;99.90;;;;;;5091490;28;20385;-49
2021/03/21 01:14:35;;;;;;;15.80;2.25;;;4.90;99.90;;;;;;5073344;28;20388;-49
2021/03/21 01:17:01;;;;;;;12.95;1.60;;;4.90;99.90;;;;;;5089345;28;20405;-50
2021/03/21 01:19:27;;;;;;;18.00;1.98;;;4.90;99.90;;;;;;5090492;28;20717;-49
2021/03/21 01:21:53;;;;;;;19.58;2.10;;;4.90;99.90;;;;;;5091147;28;20733;-50
2021/03/21 01:24:21;;;;;;;20.85;1.98;;;4.90;99.90;;;;;;5091148;28;20388;-49
2021/03/21 01:26:47;;;;;;;17.83;1.83;;;4.80;99.90;;;;;;5064574;28;20379;-52
2021/03/21 01:29:14;;;;;;;19.00;2.20;;;4.80;99.90;;;;;;5043960;28;20398;-52
2021/03/21 01:31:40;;;;;;;16.98;1.88;;;4.80;99.90;;;;;;5089464;28;20908;-49
2021/03/21 01:34:06;;;;;;;17.30;2.20;;;4.70;99.90;;;;;;5093439;28;20883;-52
2021/03/21 01:36:34;;;;;;;17.10;2.22;;;4.60;99.90;;;;;;5094831;28;20393;-50
2021/03/21 01:39:13;;;;;;;21.13;2.03;;;4.60;99.90;;;;;;5076272;28;20384;-50
2021/03/21 01:41:39;;;;;;;14.10;2.00;;;4.50;99.90;;;;;;5052809;28;20374;-48
2021/03/21 01:44:07;;;;;;;13.30;1.48;;;4.40;99.90;;;;;;5094096;28;20380;-49
2021/03/21 01:46:33;;;;;;;19.65;1.80;;;4.30;99.90;;;;;;5093869;28;20411;-52
2021/03/21 01:49:00;;;;;;;16.55;2.08;;;4.20;99.90;;;;;;5093662;28;20384;-49
2021/03/21 01:51:37;;;;;;;21.40;2.08;;;4.10;99.90;;;;;;5082644;28;20427;-50
2021/03/21 01:54:05;;;;;;;14.73;2.00;;;4.10;99.90;;;;;;5071540;28;20403;-52
2021/03/21 01:56:31;;;;;;;20.23;2.00;;;4.10;99.90;;;;;;5077054;28;20403;-52
2021/03/21 01:59:09;;;;;;;21.75;2.38;;;4.10;99.90;;;;;;5067663;28;20405;-49
2021/03/21 02:01:35;;;;;;;13.60;1.40;;;4.20;99.90;;;;;;5076130;28;20385;-49
2021/03/21 02:04:02;;;;;;;18.55;2.00;;;4.20;99.90;;;;;;5094230;28;20395;-52
2021/03/21 02:06:37;;;;;;;12.33;1.60;;;4.20;99.90;;;;;;5094731;28;20411;-50
2021/03/21 02:09:15;;;;;;;14.40;1.35;;;4.10;99.90;;;;;;5093481;28;20388;-52
2021/03/21 02:11:56;;;;;;;11.60;1.63;;;4.20;99.90;;;;;;5090072;28;20404;-47
2021/03/21 02:14:50;;;;;;;16.17;1.85;;;4.30;99.90;;;;;;5094113;28;20387;-49
2021/03/21 02:17:31;;;;;;;13.13;1.58;;;4.40;99.90;;;;;;5078368;28;20384;-49
2021/03/21 02:20:16;;;;;;;11.35;1.50;;;4.50;99.90;;;;;;5075493;28;20403;-50
2021/03/21 02:22:57;;;;;;;13.32;2.20;;;4.40;99.90;;;;;;5087399;28;20385;-49
2021/03/21 02:25:32;;;;;;;14.60;1.20;;;4.40;99.90;;;;;;5060544;28;20381;-52
2021/03/21 02:28:17;;;;;;;12.40;1.50;;;4.50;99.90;;;;;;5094020;28;20876;-50
2021/03/21 02:30:45;;;;;;;11.82;1.30;;;4.40;99.90;;;;;;5093650;28;20404;-51
2021/03/21 02:33:16;;;;;;;9.55;1.08;;;4.30;99.90;;;;;;5076182;28;20380;-49
2021/03/21 02:36:04;;;;;;;6.95;1.00;;;4.30;99.90;;;;;;5075936;28;20728;-49
2021/03/21 02:38:53;;;;;;;7.50;1.13;;;4.40;99.90;;;;;;5070760;28;20385;-49
2021/03/21 02:41:43;;;;;;;7.57;0.87;;;4.50;99.90;;;;;;5087974;28;20887;-49
2021/03/21 02:44:15;;;;;;;12.20;1.65;;;4.60;99.90;;;;;;5067952;28;20867;-49
2021/03/21 02:46:45;;;;;;;6.90;0.80;;;4.70;99.90;;;;;;5066351;28;20390;-51
2021/03/21 02:49:24;;;;;;;7.35;0.85;;;4.70;99.90;;;;;;5075533;28;20407;-50
2021/03/21 02:52:03;;;;;;;4.68;0.90;;;4.70;99.90;;;;;;5059297;28;20402;-49
2021/03/21 02:54:35;;;;;;;7.22;0.82;;;4.70;99.90;;;;;;5071007;28;20380;-49
2021/03/21 02:57:06;;;;;;;7.78;0.98;;;4.60;99.90;;;;;;5056784;28;20405;-50
2021/03/21 02:59:37;;;;;;;4.82;0.60;;;4.60;99.90;;;;;;5071617;28;20693;-49
2021/03/21 03:02:08;;;;;;;7.28;0.80;;;4.50;99.90;;;;;;5073412;28;20452;-50
2021/03/21 03:04:37;;;;;;;7.63;1.13;;;4.40;99.90;;;;;;5075524;28;20384;-53
2021/03/21 03:07:08;;;;;;;5.40;0.60;;;4.40;99.70;;;;;;5075970;28;20364;-50
2021/03/21 03:09:43;;;;;;;5.75;0.70;;;4.40;98.90;;;;;;5074746;28;20379;-49
2021/03/21 03:12:13;;;;;;;4.30;0.70;;;4.50;98.10;;;;;;5075766;28;20738;-50
2021/03/21 03:14:40;;;;;;;3.13;0.40;;;4.50;97.20;;;;;;5073155;28;20461;-49
2021/03/21 03:17:37;;;;;;;3.90;0.45;;;4.50;96.10;;;;;;5073749;28;21389;-50
2021/03/21 03:20:19;;;;;;;3.92;0.60;;;4.40;95.60;;;;;;5064776;28;20404;-51
2021/03/21 03:23:15;;;;;;;4.63;0.50;;;4.40;95.50;;;;;;5085784;28;20384;-48
2021/03/21 03:25:52;;;;;;;4.57;0.73;;;4.40;93.80;;;;;;5070847;28;20403;-50
2021/03/21 03:28:20;;;;;;;2.47;0.40;;;4.40;93.20;;;;;;5076273;28;20393;-50
2021/03/21 03:30:52;;;;;;;3.10;0.40;;;4.40;92.50;;;;;;5074423;28;20757;-49
2021/03/21 03:33:18;;;;;;;2.53;0.63;;;4.40;92.20;;;;;;5091944;28;20384;-49
2021/03/21 03:35:44;;;;;;;4.87;0.40;;;4.30;92.20;;;;;;5074392;28;20383;-50
2021/03/21 03:38:11;;;;;;;2.28;0.40;;;4.30;91.20;;;;;;5074712;28;20384;-49
2021/03/21 03:40:39;;;;;;;3.83;0.45;;;4.20;91.20;;;;;;5074744;28;20377;-51
2021/03/21 03:43:18;;;;;;;3.00;0.32;;;4.20;90.40;;;;;;5074644;28;20744;-49
2021/03/21 03:46:01;;;;;;;3.70;0.43;;;4.10;89.00;;;;;;5091796;28;20389;-48
2021/03/21 03:48:32;;;;;;;1.40;0.20;;;4.20;88.60;;;;;;5063004;28;20398;-49
2021/03/21 03:51:46;;;;;;;2.10;0.40;;;4.20;87.30;;;;;;5084509;28;20405;-49
2021/03/21 03:54:17;;;;;;;1.75;0.40;;;4.20;87.50;;;;;;5032997;28;21074;-50
2021/03/21 03:56:53;;;;;;;1.40;0.30;;;4.10;88.20;;;;;;5033522;28;20403;-49
2021/03/21 03:59:28;;;;;;;1.98;0.20;;;4.00;87.40;;;;;;5059913;28;20381;-48
2021/03/21 04:02:08;;;;;;;3.47;0.50;;;3.90;88.60;;;;;;5074239;28;20764;-49
2021/03/21 04:04:53;;;;;;;2.20;0.32;;;3.90;88.10;;;;;;5091761;28;20759;-49
2021/03/21 04:07:43;;;;;;;2.00;0.40;;;3.90;88.50;;;;;;5073307;28;20419;-48
2021/03/21 04:10:24;;;;;;;2.25;0.30;;;3.80;87.30;;;;;;5074658;28;20392;-49
2021/03/21 04:13:05;;;;;;;1.58;0.30;;;3.70;87.10;;;;;;5074211;28;20401;-49
2021/03/21 04:15:34;;;;;;;2.92;0.68;;;3.80;85.30;;;;;;5073675;28;20392;-49
2021/03/21 04:18:13;;;;;;;1.30;0.30;;;3.80;83.90;;;;;;5091646;28;20748;-51
2021/03/21 04:20:43;;;;;;;0.98;0.20;;;3.70;83.00;;;;;;5059060;28;20386;-47
2021/03/21 04:23:16;;;;;;;0.85;0.30;;;3.70;81.90;;;;;;5072696;28;20392;-52
2021/03/21 04:25:47;;;;;;;2.77;0.40;;;3.60;81.80;;;;;;5068925;28;20396;-49
2021/03/21 04:28:16;;;;;;;1.40;0.20;;;3.60;80.40;;;;;;5057506;28;20392;-49
2021/03/21 04:30:51;;;;;;;1.20;0.30;;;3.60;80.40;;;;;;5072594;28;20822;-48
2021/03/21 04:33:19;;;;;;;2.78;0.25;;;3.50;80.00;;;;;;5057865;28;20899;-49
2021/03/21 04:36:00;;;;;;;0.90;0.40;;;3.50;79.50;;;;;;5073833;28;20373;-47
2021/03/21 04:38:32;;;;;;;1.00;0.20;;;3.40;79.70;;;;;;5057082;28;20403;-47
2021/03/21 04:40:58;;;;;;;1.80;0.30;;;3.40;79.50;;;;;;5057693;28;20389;-47
2021/03/21 04:43:37;;;;;;;2.17;0.20;;;3.40;80.00;;;;;;5057021;28;20389;-47
2021/03/21 04:46:06;;;;;;;0.43;0.20;;;3.50;78.90;;;;;;5072687;28;20391;-46
2021/03/21 04:48:32;;;;;;;0.40;0.20;;;3.40;79.60;;;;;;5073636;28;20388;-49
2021/03/21 04:51:04;;;;;;;2.73;0.30;;;3.30;80.10;;;;;;5073384;28;20411;-49
2021/03/21 04:53:56;;;;;;;1.25;0.20;;;3.30;78.80;;;;;;5054975;28;20399;-47
2021/03/21 04:56:34;;;;;;;1.02;0.20;;;3.30;79.60;;;;;;5069230;28;20376;-46
2021/03/21 04:59:10;;;;;;;1.27;0.20;;;3.30;79.90;;;;;;5073381;28;20396;-46
2021/03/21 05:02:00;;;;;;;0.97;0.23;;;3.30;79.10;;;;;;5073618;28;20388;-46
2021/03/21 05:04:30;;;;;;;1.17;0.40;;;3.40;78.40;;;;;;5074617;28;20395;-46
2021/03/21 05:07:34;;;;;;;1.33;0.25;;;3.40;77.60;;;;;;5060355;28;20905;-46
2021/03/21 05:10:18;;;;;;;1.42;0.20;;;3.50;77.10;;;;;;5087003;28;20395;-47
2021/03/21 05:12:58;;;;;;;3.22;0.20;;;3.40;78.70;;;;;;5067100;28;20409;-49
2021/03/21 05:15:41;;;;;;;1.60;0.35;;;3.40;77.10;;;;;;5083875;28;20392;-47
2021/03/21 05:18:54;;;;;;;1.17;0.20;;;3.30;78.10;;;;;;5063727;28;20380;-46
2021/03/21 05:21:42;;;;;;;2.23;0.40;;;3.40;77.50;;;;;;5028596;28;20421;-46
2021/03/21 05:24:18;;;;;;;2.45;0.50;;;3.30;77.90;;;;;;5085349;28;20384;-46
2021/03/21 05:26:52;;;;;;;1.35;0.30;;;3.30;77.60;;;;;;5055933;28;20395;-46
2021/03/21 05:29:30;;;;;;;1.42;0.40;;;3.30;77.90;;;;;;5072401;28;20392;-49
2021/03/21 05:31:56;;;;;;;1.50;0.45;;;3.20;78.50;;;;;;5091075;28;20412;-49
2021/03/21 05:34:22;;;;;;;5.68;0.52;;;3.20;78.10;;;;;;5056717;28;20385;-49
2021/03/21 05:37:26;;;;;;;3.63;0.55;;;3.20;78.40;;;;;;5091034;28;21149;-49
2021/03/21 05:40:00;;;;;;;2.90;0.60;;;3.10;78.00;;;;;;5091202;28;20384;-49
2021/03/21 05:42:44;;;;;;;3.42;0.90;;;3.10;79.30;;;;;;5090694;28;20372;-49
2021/03/21 05:45:26;;;;;;;5.97;0.50;;;3.20;79.00;;;;;;5068628;28;20391;-46
2021/03/21 05:48:29;;;;;;;3.75;0.75;;;3.30;77.00;;;;;;5089094;28;20388;-46
2021/03/21 05:51:04;;;;;;;3.35;0.70;;;3.50;76.60;;;;;;5087311;28;20411;-48
2021/03/21 05:54:03;;;;;;;2.38;0.70;;;3.60;76.10;;;;;;5090743;28;20391;-46
2021/03/21 05:56:38;;;;;;;1.30;0.60;;;3.70;75.60;;;;;;5088682;28;20400;-47
2021/03/21 05:59:19;;;;;;;3.38;0.70;;;3.80;74.80;;;;;;5089754;28;20393;-46
2021/03/21 06:02:12;;;;;;;2.30;0.43;;;3.90;74.00;;;;;;5073203;28;20864;-46
2021/03/21 06:04:46;;;;;;;5.03;0.60;;;4.00;73.70;;;;;;5065762;28;20896;-46
2021/03/21 06:07:44;;;;;;;3.30;0.60;;;4.10;73.20;;;;;;5072380;28;20391;-49
2021/03/21 06:10:34;;;;;;;1.92;0.60;;;4.10;72.30;;;;;;5027843;28;20378;-49
2021/03/21 06:13:51;;;;;;;2.22;0.50;;;4.20;72.00;;;;;;5083847;28;20376;-49
2021/03/21 06:16:29;;;;;;;3.87;0.50;;;4.20;72.30;;;;;;4988599;28;20939;-46
2021/03/21 06:18:58;;;;;;;2.95;0.50;;;4.40;70.50;;;;;;5078665;28;20853;-46
2021/03/21 06:21:43;;;;;;;2.53;0.40;;;4.40;70.80;;;;;;5074967;28;20370;-47
2021/03/21 06:24:40;;;;;;;4.80;0.50;;;4.50;69.30;;;;;;5082492;28;20388;-50
2021/03/21 06:27:35;;;;;;;4.47;0.40;;;4.60;68.00;;;;;;5094740;28;20387;-47
2021/03/21 06:30:06;;;;;;;2.80;0.30;;;4.80;67.20;;;;;;5072974;28;20386;-47
2021/03/21 06:32:56;;;;;;;2.08;0.30;;;4.80;67.30;;;;;;5073444;28;20406;-47
2021/03/21 06:35:43;;;;;;;1.95;0.40;;;4.90;68.30;;;;;;5073091;28;20374;-48
2021/03/21 06:38:15;;;;;;;1.10;0.40;;;4.90;67.70;;;;;;5074159;28;20374;-47
2021/03/21 06:41:09;;;;;;;0.75;0.30;;;4.80;67.50;;;;;;5074247;28;20881;-48
2021/03/21 06:43:42;;;;;;;2.03;0.40;;;4.80;67.80;;;;;;5073536;28;20394;-47
2021/03/21 06:46:27;;;;;;;2.17;0.40;;;4.80;68.00;;;;;;5065283;28;20402;-49
2021/03/21 06:49:05;;;;;;;1.17;0.40;;;4.90;67.70;;;;;;5074302;28;20377;-48
2021/03/21 06:52:00;;;;;;;1.30;0.30;;;4.90;66.80;;;;;;5073982;28;20762;-47
2021/03/21 06:54:34;;;;;;;3.23;0.40;;;4.90;68.40;;;;;;5070188;28;20386;-48
2021/03/21 06:57:21;;;;;;;2.42;0.30;;;5.00;67.50;;;;;;5072891;28;20427;-48
2021/03/21 06:59:53;;;;;;;1.63;0.30;;;5.00;67.90;;;;;;5072999;28;20374;-48
2021/03/21 07:02:39;;;;;;;1.45;0.30;;;5.10;68.20;;;;;;5073577;28;20385;-49
2021/03/21 07:05:44;;;;;;;1.67;0.40;;;5.20;67.60;;;;;;5072411;28;20389;-49
2021/03/21 07:08:23;;;;;;;3.23;0.37;;;5.30;67.00;;;;;;5072962;28;20385;-49
2021/03/21 07:10:51;;;;;;;2.43;0.40;;;5.30;67.80;;;;;;5073670;28;20381;-49
2021/03/21 07:13:42;;;;;;;7.35;0.40;;;5.40;67.00;;;;;;5073436;28;20382;-49
2021/03/21 07:16:15;;;;;;;2.15;0.40;;;5.50;67.50;;;;;;5072435;28;20428;-50
2021/03/21 07:19:05;;;;;;;6.82;0.50;;;5.60;66.50;;;;;;5073815;28;20731;-49
2021/03/21 07:21:32;;;;;;;1.50;0.40;;;5.60;66.40;;;;;;5054265;28;20387;-50
2021/03/21 07:24:18;;;;;;;1.50;0.30;;;5.70;65.20;;;;;;5058774;28;20382;-50
2021/03/21 07:27:19;;;;;;;2.55;0.40;;;5.80;66.50;;;;;;5073656;28;20367;-50
2021/03/21 07:30:00;;;;;;;2.45;0.60;;;5.90;65.80;;;;;;5072202;28;20393;-50
2021/03/21 07:33:03;;;;;;;3.40;0.60;;;5.70;66.40;;;;;;5072279;28;20405;-51
2021/03/21 07:36:04;;;;;;;3.42;0.47;;;5.80;67.20;;;;;;5073288;28;20397;-50
2021/03/21 07:38:35;;;;;;;5.72;0.50;;;5.90;67.40;;;;;;5063581;28;20397;-50
2021/03/21 07:41:13;;;;;;;2.85;0.45;;;5.90;66.00;;;;;;5073091;28;20385;-50
2021/03/21 07:43:39;;;;;;;2.83;0.38;;;6.00;67.50;;;;;;5072947;28;20954;-49
2021/03/21 07:46:26;;;;;;;1.88;0.50;;;6.10;66.10;;;;;;5067240;28;20421;-51
2021/03/21 07:49:10;;;;;;;3.73;0.50;;;6.30;66.60;;;;;;5068000;28;20394;-52
2021/03/21 07:51:45;;;;;;;4.90;0.50;;;6.60;63.90;;;;;;5069963;28;20402;-50
2021/03/21 07:54:14;;;;;;;1.50;0.40;;;6.70;62.70;;;;;;5061633;28;20509;-53
2021/03/21 07:56:47;;;;;;;2.10;0.43;;;6.90;62.60;;;;;;5069800;28;20385;-54
2021/03/21 07:59:22;;;;;;;6.03;0.60;;;7.20;61.60;;;;;;5071475;28;20405;-52
2021/03/21 08:01:48;;;;;;;4.25;0.52;;;7.40;59.40;;;;;;5071598;28;20873;-54
2021/03/21 08:04:20;;;;;;;3.17;0.55;;;8.00;58.30;;;;;;5062100;28;20407;-51
2021/03/21 08:06:54;;;;;;;3.13;0.50;;;8.40;57.60;;;;;;5054583;28;20738;-52
2021/03/21 08:09:33;;;;;;;5.80;0.70;;;8.40;55.00;;;;;;5069477;28;20378;-49
2021/03/21 08:12:11;;;;;;;4.70;0.82;;;8.60;57.40;;;;;;5062842;28;20417;-53
2021/03/21 08:14:49;;;;;;;3.13;0.50;;;9.20;55.60;;;;;;5071862;28;20421;-55
2021/03/21 08:17:38;;;;;;;4.43;0.47;;;9.60;51.70;;;;;;5071259;28;20388;-52
2021/03/21 08:20:20;;;;;;;6.00;0.70;;;9.40;51.80;;;;;;5072534;28;20710;-51
2021/03/21 08:22:46;;;;;;;4.28;0.93;;;9.40;53.40;;;;;;5073085;28;20405;-51
2021/03/21 08:25:30;;;;;;;4.05;0.50;;;10.10;51.00;;;;;;5064131;28;20386;-52
2021/03/21 08:27:56;;;;;;;4.70;0.60;;;9.60;48.90;;;;;;5070776;28;20790;-49
2021/03/21 08:30:26;;;;;;;6.10;0.77;;;9.40;51.00;;;;;;5082059;28;20734;-54
2021/03/21 08:32:55;;;;;;;7.10;0.90;;;9.60;51.50;;;;;;5072882;28;20405;-52
2021/03/21 08:35:24;;;;;;;6.10;0.40;;;10.40;47.10;;;;;;5090521;28;20376;-55
2021/03/21 08:37:55;;;;;;;2.88;0.50;;;10.10;47.20;;;;;;5090850;28;20388;-50
2021/03/21 08:40:33;;;;;;;5.40;0.60;;;10.20;46.40;;;;;;5090323;28;20401;-50
2021/03/21 08:43:09;;;;;;;4.17;0.60;;;10.50;46.10;;;;;;5078500;28;20898;-50
2021/03/21 08:45:38;;;;;;;4.60;0.40;;;10.70;46.00;;;;;;5087901;28;20757;-52
2021/03/21 08:48:25;;;;;;;2.53;0.50;;;11.00;43.50;;;;;;5057383;28;20458;-54
2021/03/21 08:50:52;;;;;;;4.18;0.60;;;11.60;42.50;;;;;;5090209;28;20388;-53
2021/03/21 08:53:37;;;;;;;2.43;0.30;;;11.60;42.00;;;;;;5055263;28;20412;-53
2021/03/21 08:56:13;;;;;;;2.95;0.50;;;11.60;41.40;;;;;;5068990;28;20391;-52
2021/03/21 08:58:41;;;;;;;3.42;0.40;;;12.50;38.80;;;;;;5090635;28;20393;-50
2021/03/21 09:01:21;;;;;;;2.70;0.40;;;12.80;37.30;;;;;;5089853;28;20384;-51
2021/03/21 09:03:48;;;;;;;5.82;0.50;;;13.00;36.40;;;;;;5089823;28;21069;-50
2021/03/21 09:06:33;;;;;;;7.05;0.60;;;12.60;36.40;;;;;;5063841;28;20760;-51
2021/03/21 09:09:21;;;;;;;6.32;0.40;;;12.80;34.90;;;;;;5090501;28;20384;-51
2021/03/21 09:11:53;;;;;;;7.13;0.40;;;13.00;36.10;;;;;;5082671;28;20419;-48
2021/03/21 09:14:34;;;;;;;23.50;1.08;;;12.80;33.70;;;;;;5089379;28;20399;-47
2021/03/21 09:17:05;;;;;;;7.05;0.50;;;13.50;34.00;;;;;;5071069;28;20880;-46
2021/03/21 09:19:35;;;;;;;5.85;0.52;;;13.60;31.50;;;;;;5088900;28;20384;-47
2021/03/21 09:22:06;;;;;;;2.33;0.30;;;14.20;30.00;;;;;;5089409;28;20381;-50
2021/03/21 09:24:36;;;;;;;1.77;0.40;;;13.40;32.90;;;;;;5056401;28;20365;-49
2021/03/21 09:27:20;;;;;;;1.77;0.40;;;12.80;32.50;;;;;;5090564;28;20405;-52
2021/03/21 09:29:46;;;;;;;5.57;0.50;;;13.30;30.40;;;;;;5072379;28;20405;-48
2021/03/21 09:32:28;;;;;;;3.85;0.50;;;13.20;32.20;;;;;;5072240;28;20741;-51
2021/03/21 09:35:32;;;;;;;3.47;0.60;;;13.90;30.40;;;;;;5088602;28;20388;-47
2021/03/21 09:38:19;;;;;;;4.07;0.50;;;13.40;30.00;;;;;;5090499;28;20392;-46
2021/03/21 09:40:50;;;;;;;2.85;0.47;;;14.00;32.20;;;;;;5072157;28;20380;-46
2021/03/21 09:43:19;;;;;;;2.40;0.30;;;14.40;28.80;;;;;;5055533;28;20399;-47
2021/03/21 09:45:49;;;;;;;3.85;0.55;;;14.30;28.90;;;;;;5072400;28;20411;-50
2021/03/21 09:48:17;;;;;;;3.50;0.70;;;13.30;29.60;;;;;;5071722;28;20737;-49
2021/03/21 09:50:55;;;;;;;3.38;0.63;;;13.40;29.20;;;;;;5070270;28;20384;-49
2021/03/21 09:53:35;;;;;;;2.40;0.40;;;13.10;29.70;;;;;;5071013;28;20404;-49
2021/03/21 09:56:25;;;;;;;2.83;0.45;;;13.10;28.60;;;;;;5067031;28;20453;-50
2021/03/21 09:59:14;;;;;;;1.85;0.50;;;13.10;28.80;;;;;;5058888;28;20411;-51
2021/03/21 10:01:47;;;;;;;2.75;0.30;;;13.30;28.20;;;;;;5074941;28;20383;-51
2021/03/21 10:04:28;;;;;;;3.25;0.32;;;12.90;27.60;;;;;;5074215;28;20372;-49
2021/03/21 10:06:57;;;;;;;5.50;0.50;;;13.20;28.40;;;;;;5073894;28;20380;-52
2021/03/21 10:09:24;;;;;;;1.57;0.30;;;14.00;27.50;;;;;;5094080;28;20384;-49
2021/03/21 10:11:52;;;;;;;3.05;0.30;;;14.60;26.90;;;;;;5059177;28;20415;-50
2021/03/21 10:14:29;;;;;;;2.72;0.40;;;15.00;26.10;;;;;;5075537;28;20935;-48
2021/03/21 10:17:17;;;;;;;2.58;0.35;;;15.00;24.20;;;;;;5092159;28;20444;-51
2021/03/21 10:19:55;;;;;;;1.42;0.22;;;15.00;25.70;;;;;;5092542;28;20872;-48
2021/03/21 10:22:25;;;;;;;4.25;0.40;;;15.70;25.50;;;;;;5090621;28;20381;-48
2021/03/21 10:24:52;;;;;;;4.60;0.40;;;15.50;22.40;;;;;;5090762;28;20424;-48
2021/03/21 10:27:23;;;;;;;8.67;0.67;;;16.00;22.30;;;;;;5091822;28;20753;-49
2021/03/21 10:30:02;;;;;;;5.50;0.75;;;16.10;22.20;;;;;;5091463;28;20419;-47
2021/03/21 10:32:29;;;;;;;2.22;0.65;;;17.00;24.60;;;;;;5073169;28;20408;-48
2021/03/21 10:34:56;;;;;;;4.70;0.70;;;17.30;24.80;;;;;;5056678;28;20387;-47
2021/03/21 10:37:43;;;;;;;3.67;0.80;;;15.90;25.10;;;;;;5091473;28;20388;-51
2021/03/21 10:40:24;;;;;;;2.90;0.70;;;15.70;24.30;;;;;;5077926;28;20392;-48
2021/03/21 10:42:58;;;;;;;3.65;0.60;;;14.90;26.50;;;;;;5093849;28;20935;-49
2021/03/21 10:45:33;;;;;;;5.40;0.70;;;13.30;26.90;;;;;;5075042;28;20868;-48
2021/03/21 10:48:26;;;;;;;2.38;0.65;;;14.30;26.60;;;;;;5093429;28;20872;-47
2021/03/21 10:51:06;;;;;;;3.70;0.60;;;14.40;26.30;;;;;;5067624;28;20384;-48
2021/03/21 10:53:36;;;;;;;5.17;0.77;;;14.30;27.70;;;;;;5091278;28;20436;-49
2021/03/21 10:56:19;;;;;;;3.97;0.82;;;14.80;26.40;;;;;;5075181;28;20856;-51
2021/03/21 10:58:45;;;;;;;8.07;2.10;;;16.20;24.80;;;;;;5075511;28;20899;-48
2021/03/21 11:01:18;;;;;;;10.52;1.67;;;16.70;24.50;;;;;;5092738;28;20392;-47
2021/03/21 11:04:23;;;;;;;5.00;1.88;;;17.20;23.30;;;;;;5092469;28;20384;-48
2021/03/21 11:06:58;;;;;;;3.97;0.70;;;15.90;22.50;;;;;;5049442;28;20398;-51
2021/03/21 11:09:32;;;;;;;3.08;0.50;;;14.20;25.50;;;;;;5075143;28;20380;-48
2021/03/21 11:12:00;;;;;;;3.13;0.70;;;14.80;26.10;;;;;;5074830;28;20428;-49
2021/03/21 11:14:26;;;;;;;5.23;0.87;;;15.70;26.40;;;;;;5058056;28;20380;-49
2021/03/21 11:16:55;;;;;;;5.40;0.60;;;17.00;23.00;;;;;;5091983;28;20395;-49
2021/03/21 11:19:23;;;;;;;3.50;0.60;;;17.50;22.20;;;;;;5092384;28;20399;-50
2021/03/21 11:21:49;;;;;;;2.47;0.60;;;17.30;21.50;;;;;;5093036;28;20388;-49
2021/03/21 11:24:33;;;;;;;5.07;0.70;;;16.90;23.00;;;;;;5091866;28;20392;-51
2021/03/21 11:27:04;;;;;;;3.85;0.52;;;17.30;22.50;;;;;;5092962;28;20396;-52
2021/03/21 11:29:36;;;;;;;5.63;0.70;;;17.00;22.20;;;;;;5091903;28;20400;-51
2021/03/21 11:32:32;;;;;;;3.00;0.80;;;16.30;21.80;;;;;;5092678;28;20399;-50
2021/03/21 11:35:28;;;;;;;4.13;0.70;;;16.20;24.40;;;;;;5083624;28;20407;-50
2021/03/21 11:37:56;;;;;;;5.88;0.70;;;16.40;25.10;;;;;;5066352;28;20392;-51
2021/03/21 11:40:24;;;;;;;5.78;1.13;;;16.60;23.70;;;;;;5091618;28;20399;-49
2021/03/21 11:43:16;;;;;;;6.67;1.00;;;16.70;23.20;;;;;;5074403;28;20876;-49
2021/03/21 11:45:42;;;;;;;4.72;0.80;;;16.70;22.90;;;;;;5084590;28;20380;-49
2021/03/21 11:48:08;;;;;;;7.20;1.15;;;16.00;23.60;;;;;;5088731;28;20373;-51
2021/03/21 11:50:36;;;;;;;3.72;0.90;;;15.50;25.60;;;;;;5091223;28;20380;-59
2021/03/21 11:53:03;;;;;;;6.82;0.85;;;16.80;23.90;;;;;;5067903;28;20404;-52
2021/03/21 11:55:31;;;;;;;1.70;0.50;;;16.60;23.10;;;;;;5072589;28;20411;-52
2021/03/21 11:58:05;;;;;;;3.37;0.70;;;15.20;24.00;;;;;;5057266;28;20421;-53
2021/03/21 12:00:38;;;;;;;3.30;0.60;;;15.50;24.00;;;;;;5074081;28;20384;-51
2021/03/21 12:03:19;;;;;;;5.35;0.82;;;16.40;23.90;;;;;;5071967;28;20380;-51
2021/03/21 12:06:16;;;;;;;4.85;1.08;;;15.80;23.60;;;;;;5073801;28;20769;-50
2021/03/21 12:08:42;;;;;;;8.35;0.98;;;15.00;23.60;;;;;;5059914;28;20737;-51
2021/03/21 12:11:24;;;;;;;3.13;0.68;;;13.70;25.90;;;;;;5061796;28;20651;-51
2021/03/21 12:13:50;;;;;;;9.50;0.82;;;14.60;25.80;;;;;;5092835;28;20208;-53
2021/03/21 12:16:38;;;;;;;2.88;0.60;;;14.30;24.70;;;;;;5073379;28;20177;-54
2021/03/21 12:19:29;;;;;;;3.75;0.60;;;14.90;25.60;;;;;;5091088;28;20173;-53
2021/03/21 12:22:00;;;;;;;5.00;0.90;;;15.20;24.50;;;;;;5092066;28;20168;-50
2021/03/21 12:24:28;;;;;;;4.03;0.70;;;14.70;25.50;;;;;;5072280;28;20177;-52
2021/03/21 12:27:33;;;;;;;8.68;1.00;;;14.00;25.80;;;;;;5075784;28;20161;-51
2021/03/21 12:30:07;;;;;;;5.97;0.70;;;14.00;27.60;;;;;;5024174;28;20216;-51
2021/03/21 12:32:41;;;;;;;4.50;0.80;;;14.00;25.30;;;;;;5081872;28;20209;-55
2021/03/21 12:35:27;;;;;;;3.30;0.57;;;13.10;26.10;;;;;;5069438;28;20173;-49
2021/03/21 12:37:58;;;;;;;5.65;1.00;;;13.90;26.00;;;;;;5071046;28;20200;-50
2021/03/21 12:40:36;;;;;;;3.80;0.73;;;14.10;25.70;;;;;;5091567;28;20185;-54
2021/03/21 12:43:30;;;;;;;6.10;0.70;;;15.40;24.60;;;;;;5092585;28;20169;-50
2021/03/21 12:46:09;;;;;;;4.72;0.90;;;15.50;23.70;;;;;;5068636;28;20699;-54
2021/03/21 12:48:50;;;;;;;4.88;0.70;;;15.60;23.60;;;;;;5090243;28;20180;-60
2021/03/21 12:51:29;;;;;;;8.18;0.95;;;14.20;24.80;;;;;;5092018;28;20201;-59
2021/03/21 12:53:55;;;;;;;6.57;1.17;;;15.10;25.60;;;;;;5091907;28;20205;-52
2021/03/21 12:56:21;;;;;;;10.27;1.10;;;15.90;23.90;;;;;;5091143;28;20185;-51
2021/03/21 12:58:47;;;;;;;2.53;0.60;;;14.80;24.40;;;;;;5090138;28;20177;-50
2021/03/21 13:01:14;;;;;;;2.88;0.75;;;14.90;24.90;;;;;;5091725;28;20539;-50
2021/03/21 13:03:40;;;;;;;4.20;0.80;;;14.70;24.60;;;;;;5090899;28;20169;-50
2021/03/21 13:06:06;;;;;;;2.38;0.73;;;14.10;25.10;;;;;;5091216;28;20184;-51
2021/03/21 13:08:33;;;;;;;5.28;0.98;;;14.10;25.30;;;;;;5074239;28;20176;-53
2021/03/21 13:11:00;;;;;;;3.03;0.95;;;13.20;25.50;;;;;;5090246;28;20184;-50
2021/03/21 13:13:26;;;;;;;5.72;0.60;;;13.40;26.30;;;;;;5091839;28;20208;-51
2021/03/21 13:15:53;;;;;;;6.18;0.65;;;14.00;25.50;;;;;;5091126;28;20668;-51
2021/03/21 13:18:19;;;;;;;6.90;0.80;;;15.00;24.50;;;;;;5073558;28;20184;-52
2021/03/21 13:20:51;;;;;;;10.82;0.68;;;14.50;23.60;;;;;;5091963;28;20185;-53
2021/03/21 13:23:17;;;;;;;5.18;0.57;;;13.80;24.40;;;;;;5091293;28;20165;-53
2021/03/21 13:25:44;;;;;;;2.67;0.50;;;13.40;25.60;;;;;;5089998;28;20192;-50
2021/03/21 13:28:10;;;;;;;4.05;0.90;;;13.80;25.30;;;;;;5087413;28;20188;-53
2021/03/21 13:30:39;;;;;;;2.10;0.32;;;13.80;24.70;;;;;;5074741;28;20582;-50
2021/03/21 13:33:06;;;;;;;0.50;0.20;;;12.40;25.20;;;;;;5095694;28;20559;-52
2021/03/21 13:35:32;;;;;;;0.73;0.30;;;12.10;25.90;;;;;;5094465;28;20540;-50